createdAt,value
2016-12-04T00:00:14.887Z,-7.38947264194
2016-12-04T00:00:42.585Z,-7.429139595
2016-12-04T00:01:10.295Z,-7.39249831952
2016-12-04T00:01:37.997Z,-7.42914550453
2016-12-04T00:02:05.730Z,-7.42999833106
2016-12-04T00:02:33.428Z,-7.42999999674
2016-12-04T00:03:01.126Z,-7.42999999999
2016-12-04T00:03:28.827Z,-7.43
2016-12-04T00:03:56.526Z,-7.43
2016-12-04T00:04:24.221Z,-7.43
2016-12-04T00:04:51.919Z,-7.43
2016-12-04T00:05:19.621Z,-7.453671875
2016-12-04T00:05:47.325Z,-7.43004623413
2016-12-04T00:06:15.035Z,-7.4300000903
2016-12-04T00:06:42.747Z,-7.47218750018
2016-12-04T00:07:10.447Z,-7.48996520996
2016-12-04T00:07:38.170Z,-7.48999993205
2016-12-04T00:08:05.896Z,-7.49374999987
2016-12-04T00:08:33.601Z,-7.54965576172
2016-12-04T00:09:01.297Z,-7.54999932766
2016-12-04T00:09:28.995Z,-7.54999999869
2016-12-04T00:09:56.691Z,-7.55
2016-12-04T00:10:24.400Z,-7.55
2016-12-04T00:10:52.113Z,-7.55
2016-12-04T00:11:19.838Z,-7.4928125
2016-12-04T00:11:47.533Z,-7.43023986816
2016-12-04T00:12:15.232Z,-7.38039109349
2016-12-04T00:12:42.926Z,-7.32011795135
2016-12-04T00:13:10.659Z,-7.32000023037
2016-12-04T00:13:38.355Z,-7.37531250045
2016-12-04T00:14:06.050Z,-7.40577209473
2016-12-04T00:14:33.757Z,-7.42995267987
2016-12-04T00:15:01.458Z,-7.47499990758
2016-12-04T00:15:29.156Z,-7.48961914044
2016-12-04T00:15:56.860Z,-7.46281175613
2016-12-04T00:16:24.574Z,-7.44600158546
2016-12-04T00:16:52.274Z,-7.4300312531
2016-12-04T00:17:19.979Z,-7.43187506104
2016-12-04T00:17:47.679Z,-7.46187866223
2016-12-04T00:18:15.373Z,-7.43639038801
2016-12-04T00:18:43.109Z,-7.45344998123
2016-12-04T00:19:10.836Z,-7.48992861324
2016-12-04T00:19:38.537Z,-7.48999986057
2016-12-04T00:20:06.236Z,-7.52749999973
2016-12-04T00:20:33.934Z,-7.53144042969
2016-12-04T00:21:01.633Z,-7.54949500084
2016-12-04T00:21:29.349Z,-7.60624901367
2016-12-04T00:21:57.053Z,-7.60999267385
2016-12-04T00:22:24.764Z,-7.60999998569
2016-12-04T00:22:52.495Z,-7.61332031247
2016-12-04T00:23:20.195Z,-7.65795570374
2016-12-04T00:23:47.892Z,-7.65999600723
2016-12-04T00:24:15.615Z,-7.6474999922
2016-12-04T00:24:43.318Z,-7.64708496092
2016-12-04T00:25:11.022Z,-7.65997477531
2016-12-04T00:25:38.728Z,-7.65843745073
2016-12-04T00:26:06.431Z,-7.61644226065
2016-12-04T00:26:34.149Z,-7.62261023879
2016-12-04T00:27:01.852Z,-7.61012228562
2016-12-04T00:27:29.561Z,-7.61000023884
2016-12-04T00:27:57.265Z,-7.60906250047
2016-12-04T00:28:24.964Z,-7.59124816895
2016-12-04T00:28:52.665Z,-7.55019775033
2016-12-04T00:29:20.360Z,-7.55000038623
2016-12-04T00:29:48.099Z,-7.55000000075
2016-12-04T00:30:15.826Z,-7.5498828125
2016-12-04T00:30:43.519Z,-7.54601539612
2016-12-04T00:31:11.250Z,-7.53499221757
2016-12-04T00:31:38.973Z,-7.54844725042
2016-12-04T00:32:06.671Z,-7.54999696729
2016-12-04T00:32:34.372Z,-7.54953124408
2016-12-04T00:33:02.070Z,-7.54999908446
2016-12-04T00:33:29.769Z,-7.54999999821
2016-12-04T00:33:57.472Z,-7.58
2016-12-04T00:34:25.171Z,-7.55052734375
2016-12-04T00:34:52.875Z,-7.56125102997
2016-12-04T00:35:20.598Z,-7.56818603717
2016-12-04T00:35:48.293Z,-7.6085120821
2016-12-04T00:36:15.992Z,-7.59066115641
2016-12-04T00:36:43.702Z,-7.60808722882
2016-12-04T00:37:11.408Z,-7.59288688912
2016-12-04T00:37:39.113Z,-7.60797438846
2016-12-04T00:38:06.812Z,-7.55339448123
2016-12-04T00:38:34.507Z,-7.60215506735
2016-12-04T00:39:02.207Z,-7.58982842787
2016-12-04T00:39:29.904Z,-7.6098434149
2016-12-04T00:39:57.609Z,-7.60613250667
2016-12-04T00:40:25.306Z,-7.5985080713
2016-12-04T00:40:53.031Z,-7.60564161733
2016-12-04T00:41:20.784Z,-7.60717898753
2016-12-04T00:41:48.481Z,-7.60882261521
2016-12-04T00:42:16.185Z,-7.60999770042
2016-12-04T00:42:43.886Z,-7.64134765176
2016-12-04T00:43:11.589Z,-7.63808856963
2016-12-04T00:43:39.291Z,-7.65956657924
2016-12-04T00:44:06.987Z,-7.65999915348
2016-12-04T00:44:34.683Z,-7.71812499835
2016-12-04T00:45:02.380Z,-7.71999633789
2016-12-04T00:45:30.080Z,-7.77941405535
2016-12-04T00:45:57.776Z,-7.83249885558
2016-12-04T00:46:25.505Z,-7.83998534933
2016-12-04T00:46:53.205Z,-7.83999997139
2016-12-04T00:47:20.906Z,-7.88746093744
2016-12-04T00:47:48.605Z,-7.88999504089
2016-12-04T00:48:16.298Z,-7.93078124031
2016-12-04T00:48:43.994Z,-7.94996246336
2016-12-04T00:49:11.704Z,-8.00507805169
2016-12-04T00:49:39.403Z,-8.00999038682
2016-12-04T00:50:07.106Z,-8.02499998122
2016-12-04T00:50:34.806Z,-8.06932617184
2016-12-04T00:51:02.510Z,-8.06906118393
2016-12-04T00:51:30.202Z,-8.03999816637
2016-12-04T00:51:57.928Z,-8.01720702767
2016-12-04T00:52:25.661Z,-8.01001407623
2016-12-04T00:52:53.353Z,-7.95339846499
2016-12-04T00:53:21.054Z,-7.89445976263
2016-12-04T00:53:48.754Z,-7.89000871047
2016-12-04T00:54:16.455Z,-7.84078126701
2016-12-04T00:54:44.155Z,-7.79519683841
2016-12-04T00:55:11.852Z,-7.78002968133
2016-12-04T00:55:39.555Z,-7.76476568297
2016-12-04T00:56:07.258Z,-7.77715774547
2016-12-04T00:56:34.974Z,-7.77999444872
2016-12-04T00:57:02.700Z,-7.76488280166
2016-12-04T00:57:30.423Z,-7.75606422422
2016-12-04T00:57:58.116Z,-7.75757043794
2016-12-04T00:58:25.812Z,-7.75019056726
2016-12-04T00:58:53.514Z,-7.75744177845
2016-12-04T00:59:21.207Z,-7.74151844097
2016-12-04T00:59:48.914Z,-7.77922171571
2016-12-04T01:00:16.613Z,-7.77999847991
2016-12-04T01:00:44.316Z,-7.83976562203
2016-12-04T01:01:12.014Z,-7.88062454223
2016-12-04T01:01:39.714Z,-7.88880981356
2016-12-04T01:02:07.420Z,-7.88999767542
2016-12-04T01:02:35.113Z,-7.88999999546
2016-12-04T01:03:02.819Z,-7.90499999999
2016-12-04T01:03:30.556Z,-7.92682617187
2016-12-04T01:03:58.256Z,-7.94620473862
2016-12-04T01:04:25.953Z,-7.94999258738
2016-12-04T01:04:53.658Z,-7.96124998552
2016-12-04T01:05:21.354Z,-8.00908447263
2016-12-04T01:05:49.052Z,-8.00999821186
2016-12-04T01:06:16.754Z,-8.00999999651
2016-12-04T01:06:44.457Z,-8.00249999999
2016-12-04T01:07:12.165Z,-8.00998535156
2016-12-04T01:07:39.862Z,-8.00999997139
2016-12-04T01:08:07.566Z,-8.02499999994
2016-12-04T01:08:35.279Z,-8.01002929687
2016-12-04T01:09:02.995Z,-8.01000005722
2016-12-04T01:09:30.700Z,-8.01000000011
2016-12-04T01:09:58.400Z,-8.01
2016-12-04T01:10:26.099Z,-7.9725
2016-12-04T01:10:53.795Z,-7.89766113281
2016-12-04T01:11:21.505Z,-7.84079621315
2016-12-04T01:11:49.219Z,-7.8100015551
2016-12-04T01:12:16.924Z,-7.78005859679
2016-12-04T01:12:44.623Z,-7.77578136445
2016-12-04T01:13:12.319Z,-7.74928863548
2016-12-04T01:13:40.024Z,-7.76880720437
2016-12-04T01:14:07.722Z,-7.77540782657
2016-12-04T01:14:35.448Z,-7.77471759341
2016-12-04T01:15:03.148Z,-7.7720209328
2016-12-04T01:15:30.848Z,-7.73732816588
2016-12-04T01:15:58.543Z,-7.72003384407
2016-12-04T01:16:26.235Z,-7.6604688161
2016-12-04T01:16:53.939Z,-7.65921966566
2016-12-04T01:17:21.648Z,-7.65960785091
2016-12-04T01:17:49.342Z,-7.65999923408
2016-12-04T01:18:17.035Z,-7.7087499985
2016-12-04T01:18:44.733Z,-7.74997802734
2016-12-04T01:19:12.429Z,-7.77888667583
2016-12-04T01:19:40.132Z,-7.82874782554
2016-12-04T01:20:07.857Z,-7.8524780231
2016-12-04T01:20:35.590Z,-7.87127437114
2016-12-04T01:21:03.282Z,-7.88996342651
2016-12-04T01:21:30.975Z,-7.91999992857
2016-12-04T01:21:58.674Z,-7.92990234361
2016-12-04T01:22:26.394Z,-7.94996074676
2016-12-04T01:22:54.089Z,-7.94999992333
2016-12-04T01:23:21.788Z,-7.94999999985
2016-12-04T01:23:49.488Z,-7.95
2016-12-04T01:24:17.184Z,-7.9584375
2016-12-04T01:24:44.879Z,-8.00790710449
2016-12-04T01:25:12.576Z,-7.95069903731
2016-12-04T01:25:40.300Z,-7.95187636531
2016-12-04T01:26:07.998Z,-7.95000366478
2016-12-04T01:26:35.696Z,-7.95000000716
2016-12-04T01:27:03.398Z,-7.95000000001
2016-12-04T01:27:31.127Z,-7.95
2016-12-04T01:27:58.826Z,-7.95
2016-12-04T01:28:26.527Z,-7.96734375
2016-12-04T01:28:54.222Z,-7.95003387451
2016-12-04T01:29:21.924Z,-7.95000006616
2016-12-04T01:29:49.619Z,-7.92000000013
2016-12-04T01:30:17.314Z,-7.94126953125
2016-12-04T01:30:45.023Z,-7.8902173233
2016-12-04T01:31:12.747Z,-7.89000042446
2016-12-04T01:31:40.473Z,-7.89750000083
2016-12-04T01:32:08.175Z,-7.89001464844
2016-12-04T01:32:35.883Z,-7.89750002861
2016-12-04T01:33:03.579Z,-7.90501464849
2016-12-04T01:33:31.274Z,-7.89002932549
2016-12-04T01:33:58.978Z,-7.89000005728
2016-12-04T01:34:26.681Z,-7.89000000011
2016-12-04T01:34:54.381Z,-7.89
2016-12-04T01:35:22.087Z,-7.84146484375
2016-12-04T01:35:49.784Z,-7.78750286102
2016-12-04T01:36:17.487Z,-7.78001465403
2016-12-04T01:36:45.201Z,-7.77929690362
2016-12-04T01:37:12.909Z,-7.72480331426
2016-12-04T01:37:40.625Z,-7.75188438147
2016-12-04T01:38:08.324Z,-7.77994508668
2016-12-04T01:38:36.024Z,-7.73640614275
2016-12-04T01:39:03.720Z,-7.74991485575
2016-12-04T01:39:31.420Z,-7.77994123995
2016-12-04T01:39:59.115Z,-7.73406238523
2016-12-04T01:40:26.814Z,-7.7799102781
2016-12-04T01:40:54.514Z,-7.76453107476
2016-12-04T01:41:22.211Z,-7.74739166226
2016-12-04T01:41:49.906Z,-7.74243631184
2016-12-04T01:42:17.617Z,-7.75004382092
2016-12-04T01:42:45.372Z,-7.72580086684
2016-12-04T01:43:13.079Z,-7.74145664232
2016-12-04T01:43:40.776Z,-7.7451200325
2016-12-04T01:44:08.478Z,-7.72004906256
2016-12-04T01:44:36.173Z,-7.75867197083
2016-12-04T01:45:03.871Z,-7.77937240619
2016-12-04T01:45:31.574Z,-7.77999877423
2016-12-04T01:45:59.267Z,-7.78187499761
2016-12-04T01:46:26.974Z,-7.7650036621
2016-12-04T01:46:54.672Z,-7.74247071028
2016-12-04T01:47:22.372Z,-7.75473138811
2016-12-04T01:47:50.089Z,-7.72194283474
2016-12-04T01:48:17.805Z,-7.7544569196
2016-12-04T01:48:45.511Z,-7.76237198617
2016-12-04T01:49:13.209Z,-7.73801244529
2016-12-04T01:49:40.911Z,-7.75905861806
2016-12-04T01:50:08.618Z,-7.77925597386
2016-12-04T01:50:36.314Z,-7.77624854682
2016-12-04T01:51:04.011Z,-7.77999267294
2016-12-04T01:51:31.712Z,-7.83624998569
2016-12-04T01:51:59.416Z,-7.83999267575
2016-12-04T01:52:27.113Z,-7.84019529819
2016-12-04T01:52:54.824Z,-7.88990272519
2016-12-04T01:53:22.519Z,-7.88999981001
2016-12-04T01:53:50.244Z,-7.88999999963
2016-12-04T01:54:17.938Z,-7.8909375
2016-12-04T01:54:45.637Z,-7.89000183105
2016-12-04T01:55:13.343Z,-7.89000000358
2016-12-04T01:55:41.042Z,-7.89000000001
2016-12-04T01:56:08.739Z,-7.89
2016-12-04T01:56:36.439Z,-7.89
2016-12-04T01:57:04.137Z,-7.89
2016-12-04T01:57:31.872Z,-7.89
2016-12-04T01:57:59.607Z,-7.89
2016-12-04T01:58:27.302Z,-7.948359375
2016-12-04T01:58:55.011Z,-7.97999679565
2016-12-04T01:59:22.743Z,-8.00654296249
2016-12-04T01:59:50.454Z,-8.00999324797
2016-12-04T02:00:18.148Z,-8.01749998681
2016-12-04T02:00:45.849Z,-8.06931152341
2016-12-04T02:01:13.556Z,-8.06999865532
2016-12-04T02:01:41.251Z,-8.01140624737
2016-12-04T02:02:08.958Z,-7.95011993408
2016-12-04T02:02:36.654Z,-7.91250023425
2016-12-04T02:03:04.371Z,-7.89191894577
2016-12-04T02:03:32.073Z,-7.89000374794
2016-12-04T02:03:59.773Z,-7.89000000732
2016-12-04T02:04:27.470Z,-7.87750000001
2016-12-04T02:04:55.206Z,-7.88997558594
2016-12-04T02:05:22.902Z,-7.88999995232
2016-12-04T02:05:50.603Z,-7.88999999991
2016-12-04T02:06:18.300Z,-7.89
2016-12-04T02:06:46.028Z,-7.89
2016-12-04T02:07:13.737Z,-7.89
2016-12-04T02:07:41.440Z,-7.89
2016-12-04T02:08:09.142Z,-7.89
2016-12-04T02:08:36.842Z,-7.89
2016-12-04T02:09:04.545Z,-7.89
2016-12-04T02:09:32.248Z,-7.89
2016-12-04T02:09:59.958Z,-7.89
2016-12-04T02:10:27.691Z,-7.89
2016-12-04T02:10:55.401Z,-7.89
2016-12-04T02:11:23.098Z,-7.89
2016-12-04T02:11:50.798Z,-7.89
2016-12-04T02:12:18.499Z,-7.9284375
2016-12-04T02:12:46.227Z,-7.94960632324
2016-12-04T02:13:13.930Z,-7.9499992311
2016-12-04T02:13:41.627Z,-7.9992187485
2016-12-04T02:14:09.324Z,-8.00915863037
2016-12-04T02:14:37.029Z,-8.0249983567
2016-12-04T02:15:04.720Z,-8.06991210617
2016-12-04T02:15:32.426Z,-8.10480451583
2016-12-04T02:16:00.158Z,-8.12995079007
2016-12-04T02:16:27.857Z,-8.12999990389
2016-12-04T02:16:55.554Z,-8.12999999981
2016-12-04T02:17:23.258Z,-8.12203125
2016-12-04T02:17:50.961Z,-8.07010162354
2016-12-04T02:18:18.663Z,-8.01351582348
2016-12-04T02:18:46.365Z,-7.96406936684
2016-12-04T02:19:14.061Z,-7.95002747923
2016-12-04T02:19:41.755Z,-7.89925786617
2016-12-04T02:20:09.454Z,-7.89001808177
2016-12-04T02:20:37.154Z,-7.84136722282
2016-12-04T02:21:04.858Z,-7.84000267036
2016-12-04T02:21:32.590Z,-7.78949219272
2016-12-04T02:22:00.324Z,-7.78083885194
2016-12-04T02:22:28.028Z,-7.78082195088
2016-12-04T02:22:55.736Z,-7.80918129287
2016-12-04T02:23:23.468Z,-7.83993980721
2016-12-04T02:23:51.167Z,-7.88365222619
2016-12-04T02:24:18.869Z,-7.942487602
2016-12-04T02:24:46.568Z,-7.97061032735
2016-12-04T02:25:14.272Z,-8.00757931705
2016-12-04T02:25:41.966Z,-8.0629640221
2016-12-04T02:26:09.664Z,-8.06998625786
2016-12-04T02:26:37.363Z,-8.07374997316
2016-12-04T02:27:05.092Z,-8.07000732417
2016-12-04T02:27:32.790Z,-8.07000001431
2016-12-04T02:28:00.503Z,-8.07000000003
2016-12-04T02:28:28.234Z,-8.04
2016-12-04T02:28:55.957Z,-8.01017578125
2016-12-04T02:29:23.664Z,-8.01000034332
2016-12-04T02:29:51.358Z,-7.99500000067
2016-12-04T02:30:19.058Z,-8.00997070313
2016-12-04T02:30:46.755Z,-8.03765619278
2016-12-04T02:31:14.453Z,-8.0699368285
2016-12-04T02:31:42.150Z,-8.10749987662
2016-12-04T02:32:09.855Z,-8.12772949195
2016-12-04T02:32:37.596Z,-8.12999556541
2016-12-04T02:33:05.305Z,-8.13187499134
2016-12-04T02:33:33.015Z,-8.18496459959
2016-12-04T02:34:00.718Z,-8.18999016523
2016-12-04T02:34:28.422Z,-8.18999998079
2016-12-04T02:34:56.126Z,-8.21999999996
2016-12-04T02:35:23.822Z,-8.19146484375
2016-12-04T02:35:51.523Z,-8.20558879852
2016-12-04T02:36:19.216Z,-8.22096794687
2016-12-04T02:36:46.909Z,-8.19006048427
2016-12-04T02:37:14.605Z,-8.17218761813
2016-12-04T02:37:42.303Z,-8.11508239769
2016-12-04T02:38:10.028Z,-8.04008805156
2016-12-04T02:38:37.766Z,-8.01978532823
2016-12-04T02:39:05.471Z,-8.01001911197
2016-12-04T02:39:33.165Z,-8.01000003733
2016-12-04T02:40:00.875Z,-8.01000000007
2016-12-04T02:40:28.581Z,-8.01
2016-12-04T02:40:56.279Z,-7.97625
2016-12-04T02:41:23.976Z,-8.00993408203
2016-12-04T02:41:51.675Z,-7.97238268375
2016-12-04T02:42:19.369Z,-7.99973121618
2016-12-04T02:42:47.064Z,-8.00494088128
2016-12-04T02:43:14.765Z,-8.00987293141
2016-12-04T02:43:42.501Z,-8.00999975182
2016-12-04T02:44:10.228Z,-8.03437499952
2016-12-04T02:44:37.920Z,-8.06946166992
2016-12-04T02:45:05.619Z,-8.12437394857
2016-12-04T02:45:33.320Z,-8.12987182412
2016-12-04T02:46:01.019Z,-8.18964818716
2016-12-04T02:46:28.718Z,-8.20499931287
2016-12-04T02:46:56.421Z,-8.24780273303
2016-12-04T02:47:24.123Z,-8.29140195846
2016-12-04T02:47:51.824Z,-8.29998320695
2016-12-04T02:48:19.525Z,-8.3203905922
2016-12-04T02:48:47.236Z,-8.35898513788
2016-12-04T02:49:14.965Z,-8.35988083035
2016-12-04T02:49:42.665Z,-8.35999976725
2016-12-04T02:50:10.363Z,-8.35999999955
2016-12-04T02:50:38.061Z,-8.36
2016-12-04T02:51:05.764Z,-8.36
2016-12-04T02:51:33.461Z,-8.36
2016-12-04T02:52:01.157Z,-8.36
2016-12-04T02:52:28.849Z,-8.36
2016-12-04T02:52:56.548Z,-8.3601171875
2016-12-04T02:53:24.246Z,-8.36000022888
2016-12-04T02:53:51.957Z,-8.36000000045
2016-12-04T02:54:19.665Z,-8.36
2016-12-04T02:54:47.379Z,-8.36
2016-12-04T02:55:15.098Z,-8.36
2016-12-04T02:55:42.800Z,-8.36
2016-12-04T02:56:10.503Z,-8.358125
2016-12-04T02:56:38.209Z,-8.30444946289
2016-12-04T02:57:05.908Z,-8.30000869036
2016-12-04T02:57:33.608Z,-8.27500001697
2016-12-04T02:58:01.308Z,-8.25024414066
2016-12-04T02:58:29.013Z,-8.25000047684
2016-12-04T02:58:56.724Z,-8.25019531343
2016-12-04T02:59:24.424Z,-8.27656288147
2016-12-04T02:59:52.128Z,-8.29223938063
2016-12-04T03:00:19.863Z,-8.25740671754
2016-12-04T03:00:47.555Z,-8.262807435
2016-12-04T03:01:15.261Z,-8.26115782702
2016-12-04T03:01:42.955Z,-8.29992413638
2016-12-04T03:02:10.653Z,-8.29999985183
2016-12-04T03:02:38.349Z,-8.30187499971
2016-12-04T03:03:06.048Z,-8.33117553711
2016-12-04T03:03:33.756Z,-8.30838120222
2016-12-04T03:04:01.468Z,-8.30130543204
2016-12-04T03:04:29.164Z,-8.31500254967
2016-12-04T03:04:56.860Z,-8.30002930185
2016-12-04T03:05:24.558Z,-8.30187505723
2016-12-04T03:05:52.258Z,-8.35988647472
2016-12-04T03:06:19.980Z,-8.35999977827
2016-12-04T03:06:47.682Z,-8.38999999957
2016-12-04T03:07:15.385Z,-8.41583984375
2016-12-04T03:07:43.085Z,-8.41999187469
2016-12-04T03:08:10.778Z,-8.44999998413
2016-12-04T03:08:38.477Z,-8.47982421872
2016-12-04T03:09:06.198Z,-8.50624965668
2016-12-04T03:09:33.897Z,-8.53993408136
2016-12-04T03:10:01.599Z,-8.56437487125
2016-12-04T03:10:29.297Z,-8.54567260717
2016-12-04T03:10:56.994Z,-8.58723764181
2016-12-04T03:11:24.707Z,-8.59974069852
2016-12-04T03:11:52.434Z,-8.54023386855
2016-12-04T03:12:20.148Z,-8.49500045677
2016-12-04T03:12:47.855Z,-8.46502929777
2016-12-04T03:13:15.557Z,-8.42008794785
2016-12-04T03:13:43.257Z,-8.36398454677
2016-12-04T03:14:10.962Z,-8.36000778232
2016-12-04T03:14:38.667Z,-8.3150000152
2016-12-04T03:15:06.364Z,-8.3000292969
2016-12-04T03:15:34.058Z,-8.25078130722
2016-12-04T03:16:01.766Z,-8.25000152599
2016-12-04T03:16:29.471Z,-8.25000000298
2016-12-04T03:16:57.167Z,-8.25000000001
2016-12-04T03:17:24.897Z,-8.25
2016-12-04T03:17:52.619Z,-8.25
2016-12-04T03:18:20.316Z,-8.24953125
2016-12-04T03:18:48.013Z,-8.23453033447
2016-12-04T03:19:15.725Z,-8.21621978581
2016-12-04T03:19:43.425Z,-8.24219964802
2016-12-04T03:20:11.121Z,-8.19537538994
2016-12-04T03:20:38.819Z,-8.19434643631
2016-12-04T03:21:06.524Z,-8.24661005163
2016-12-04T03:21:34.222Z,-8.24987619151
2016-12-04T03:22:01.923Z,-8.29921850819
2016-12-04T03:22:29.637Z,-8.34499847365
2016-12-04T03:22:57.371Z,-8.35973632514
2016-12-04T03:23:25.079Z,-8.39468698501
2016-12-04T03:23:52.783Z,-8.41995056052
2016-12-04T03:24:20.508Z,-8.46453115344
2016-12-04T03:24:48.207Z,-8.47996978741
2016-12-04T03:25:15.903Z,-8.49054681599
2016-12-04T03:25:43.607Z,-8.53978622425
2016-12-04T03:26:11.309Z,-8.54749958247
2016-12-04T03:26:39.003Z,-8.54388183512
2016-12-04T03:27:06.706Z,-8.59649195671
2016-12-04T03:27:34.411Z,-8.59999314835
2016-12-04T03:28:02.116Z,-8.59999998662
2016-12-04T03:28:29.848Z,-8.62812499997
2016-12-04T03:28:57.561Z,-8.65993774414
2016-12-04T03:29:25.263Z,-8.65999987841
2016-12-04T03:29:52.961Z,-8.66023437476
2016-12-04T03:30:20.658Z,-8.66000045776
2016-12-04T03:30:48.357Z,-8.66000000089
2016-12-04T03:31:16.058Z,-8.66
2016-12-04T03:31:43.761Z,-8.66
2016-12-04T03:32:11.459Z,-8.66
2016-12-04T03:32:39.157Z,-8.65953125
2016-12-04T03:33:06.852Z,-8.61956939697
2016-12-04T03:33:34.542Z,-8.60109290898
2016-12-04T03:34:02.272Z,-8.60000213459
2016-12-04T03:34:30.006Z,-8.55031250417
2016-12-04T03:34:57.700Z,-8.54002014161
2016-12-04T03:35:25.398Z,-8.48187503934
2016-12-04T03:35:53.096Z,-8.48047241219
2016-12-04T03:36:20.788Z,-8.44988373518
2016-12-04T03:36:48.495Z,-8.42005836667
2016-12-04T03:37:16.195Z,-8.364218864
2016-12-04T03:37:43.894Z,-8.36000823997
2016-12-04T03:38:11.593Z,-8.34500001609
2016-12-04T03:38:39.297Z,-8.35997070316
2016-12-04T03:39:06.996Z,-8.34499994278
2016-12-04T03:39:34.753Z,-8.35997070301
2016-12-04T03:40:02.453Z,-8.35999994278
2016-12-04T03:40:30.154Z,-8.40499999989
2016-12-04T03:40:57.848Z,-8.41985351562
2016-12-04T03:41:25.555Z,-8.4349997139
2016-12-04T03:41:53.253Z,-8.47616210882
2016-12-04T03:42:20.952Z,-8.47940656662
2016-12-04T03:42:48.644Z,-8.52523321595
2016-12-04T03:43:16.339Z,-8.53973678362
2016-12-04T03:43:44.039Z,-8.53999948591
2016-12-04T03:44:11.750Z,-8.539999999
2016-12-04T03:44:39.454Z,-8.54
2016-12-04T03:45:07.183Z,-8.58125
2016-12-04T03:45:34.913Z,-8.56035400391
2016-12-04T03:46:02.619Z,-8.59921944141
2016-12-04T03:46:30.318Z,-8.57163910047
2016-12-04T03:46:58.013Z,-8.54006179512
2016-12-04T03:47:25.716Z,-8.48011730819
2016-12-04T03:47:53.417Z,-8.47625022912
2016-12-04T03:48:21.113Z,-8.43264892623
2016-12-04T03:48:48.806Z,-8.42400907993
2016-12-04T03:49:16.508Z,-8.42188283023
2016-12-04T03:49:44.233Z,-8.4200036774
2016-12-04T03:50:11.930Z,-8.38812500718
2016-12-04T03:50:39.660Z,-8.37294555665
2016-12-04T03:51:07.355Z,-8.36272059679
2016-12-04T03:51:35.053Z,-8.36492718867
2016-12-04T03:52:02.749Z,-8.36000962342
2016-12-04T03:52:30.455Z,-8.3581250188
2016-12-04T03:52:58.157Z,-8.35999633793
2016-12-04T03:53:25.860Z,-8.35999999285
2016-12-04T03:53:53.559Z,-8.35999999999
2016-12-04T03:54:21.254Z,-8.36
2016-12-04T03:54:48.975Z,-8.40125
2016-12-04T03:55:16.680Z,-8.41996337891
2016-12-04T03:55:44.378Z,-8.41999992847
2016-12-04T03:56:12.075Z,-8.41999999986
2016-12-04T03:56:39.803Z,-8.4575
2016-12-04T03:57:07.503Z,-8.42042480469
2016-12-04T03:57:35.203Z,-8.4576180172
2016-12-04T03:58:02.902Z,-8.47972191019
2016-12-04T03:58:30.600Z,-8.52874945686
2016-12-04T03:58:58.333Z,-8.53974365128
2016-12-04T03:59:26.041Z,-8.58406199932
2016-12-04T03:59:53.750Z,-8.59996887109
2016-12-04T04:00:21.455Z,-8.6449999392
2016-12-04T04:00:49.150Z,-8.65997070301
2016-12-04T04:01:16.851Z,-8.71437494278
2016-12-04T04:01:44.569Z,-8.73498901356
2016-12-04T04:02:12.300Z,-8.77956052542
2016-12-04T04:02:40.005Z,-8.77999914165
2016-12-04T04:03:07.700Z,-8.78515624832
2016-12-04T04:03:35.401Z,-8.8398928833
2016-12-04T04:04:03.095Z,-8.83132791579
2016-12-04T04:04:30.797Z,-8.82088149984
2016-12-04T04:04:58.504Z,-8.80140797168
2016-12-04T04:05:26.202Z,-8.78906524994
2016-12-04T04:05:53.899Z,-8.78236145557
2016-12-04T04:06:21.598Z,-8.78000461222
2016-12-04T04:06:49.299Z,-8.72421875901
2016-12-04T04:07:16.993Z,-8.67875823976
2016-12-04T04:07:44.734Z,-8.66027101219
2016-12-04T04:08:12.435Z,-8.64125052932
2016-12-04T04:08:40.132Z,-8.60195556744
2016-12-04T04:09:07.838Z,-8.60023819447
2016-12-04T04:09:35.537Z,-8.58500046522
2016-12-04T04:10:03.246Z,-8.59235351653
2016-12-04T04:10:30.948Z,-8.56811006546
2016-12-04T04:10:58.650Z,-8.54099240247
2016-12-04T04:11:26.345Z,-8.48750193829
2016-12-04T04:11:54.034Z,-8.48001465222
2016-12-04T04:12:21.734Z,-8.48000002862
2016-12-04T04:12:49.448Z,-8.42035156256
2016-12-04T04:13:17.170Z,-8.42000068665
2016-12-04T04:13:44.880Z,-8.42000000134
2016-12-04T04:14:12.579Z,-8.3783984375
2016-12-04T04:14:40.284Z,-8.41206718445
2016-12-04T04:15:08.004Z,-8.41998450622
2016-12-04T04:15:35.701Z,-8.46335934474
2016-12-04T04:16:03.396Z,-8.47738937372
2016-12-04T04:16:31.093Z,-8.47999490112
2016-12-04T04:16:58.791Z,-8.53835936504
2016-12-04T04:17:26.500Z,-8.53905929563
2016-12-04T04:17:54.192Z,-8.53999816269
2016-12-04T04:18:21.896Z,-8.53999999641
2016-12-04T04:18:49.639Z,-8.54374999999
2016-12-04T04:19:17.336Z,-8.59824951172
2016-12-04T04:19:45.033Z,-8.59999658108
2016-12-04T04:20:12.745Z,-8.65390624332
2016-12-04T04:20:40.445Z,-8.65998809813
2016-12-04T04:21:08.150Z,-8.65999997675
2016-12-04T04:21:35.849Z,-8.67195312495
2016-12-04T04:22:03.556Z,-8.66728897095
2016-12-04T04:22:31.253Z,-8.71977986127
2016-12-04T04:22:58.954Z,-8.71859332004
2016-12-04T04:23:26.657Z,-8.68624725258
2016-12-04T04:23:54.366Z,-8.71993407667
2016-12-04T04:24:22.099Z,-8.71999987124
2016-12-04T04:24:49.811Z,-8.76687499975
2016-12-04T04:25:17.519Z,-8.74809936523
2016-12-04T04:25:45.209Z,-8.77993769407
2016-12-04T04:26:12.912Z,-8.77624987831
2016-12-04T04:26:40.613Z,-8.77999267554
2016-12-04T04:27:08.315Z,-8.77988279819
2016-12-04T04:27:36.009Z,-8.73499977109
2016-12-04T04:28:03.709Z,-8.72553710893
2016-12-04T04:28:31.411Z,-8.76911237717
2016-12-04T04:28:59.106Z,-8.73884592261
2016-12-04T04:29:26.801Z,-8.72460712094
2016-12-04T04:29:54.566Z,-8.72000899828
2016-12-04T04:30:22.272Z,-8.72000001757
2016-12-04T04:30:49.974Z,-8.72000000003
2016-12-04T04:31:17.673Z,-8.6751171875
2016-12-04T04:31:45.375Z,-8.66002952576
2016-12-04T04:32:13.068Z,-8.64277349517
2016-12-04T04:32:40.766Z,-8.65996635448
2016-12-04T04:33:08.463Z,-8.65999993429
2016-12-04T04:33:36.156Z,-8.65249999987
2016-12-04T04:34:03.862Z,-8.65904785156
2016-12-04T04:34:31.570Z,-8.60105282784
2016-12-04T04:34:59.267Z,-8.5850020563
2016-12-04T04:35:26.998Z,-8.54161133214
2016-12-04T04:35:54.725Z,-8.54000314713
2016-12-04T04:36:22.430Z,-8.53906250615
2016-12-04T04:36:50.133Z,-8.50952941896
2016-12-04T04:37:17.831Z,-8.48005767465
2016-12-04T04:37:45.530Z,-8.48000011265
2016-12-04T04:38:13.224Z,-8.42550781272
2016-12-04T04:38:40.922Z,-8.42001075745
2016-12-04T04:39:08.620Z,-8.42000002101
2016-12-04T04:39:36.323Z,-8.39000000004
2016-12-04T04:40:04.020Z,-8.41853515625
2016-12-04T04:40:31.735Z,-8.41812213898
2016-12-04T04:40:59.463Z,-8.4199963323
2016-12-04T04:41:27.165Z,-8.41999999284
2016-12-04T04:41:54.857Z,-8.41999999999
2016-12-04T04:42:22.558Z,-8.42
2016-12-04T04:42:50.256Z,-8.42046875